Time;durP1;ratioP1;P1;durP2;ratioP2;P2;SDS_P1;SDS_P2;PMS_P1;PMS_P2;Temp;Humidity;BMP_temperature;BMP_pressure;BME280_temperature;BME280_humidity;BME280_pressure;Samples;Min_cycle;Max_cycle;Signal;HPM_P1;HPM_P2
2021/09/20 00:01:50;;;;;;;4.13;3.50;;;;;;;;;;5068993;28;20537;-68
2021/09/20 00:04:17;;;;;;;4.20;3.80;;;;;;;;;;5070131;28;20572;-68
2021/09/20 00:06:44;;;;;;;5.50;4.50;;;;;;;;;;5068546;28;20839;-69
2021/09/20 00:09:12;;;;;;;4.90;3.80;;;;;;;;;;5070161;28;20469;-68
2021/09/20 00:11:39;;;;;;;4.87;4.37;;;;;;;;;;5068494;28;20526;-68
2021/09/20 00:14:06;;;;;;;4.80;4.30;;;;;;;;;;5069307;28;20577;-69
2021/09/20 00:16:34;;;;;;;4.30;3.73;;;;;;;;;;5068402;28;20452;-69
2021/09/20 00:19:02;;;;;;;5.83;5.23;;;;;;;;;;5069600;28;20536;-69
2021/09/20 00:21:29;;;;;;;4.37;3.83;;;;;;;;;;5069199;28;20520;-69
2021/09/20 00:23:56;;;;;;;5.60;4.40;;;;;;;;;;5069403;28;20544;-68
2021/09/20 00:26:23;;;;;;;5.80;4.17;;;;;;;;;;5068781;28;20549;-72
2021/09/20 00:28:50;;;;;;;5.70;4.17;;;;;;;;;;5068777;28;20502;-68
2021/09/20 00:31:18;;;;;;;4.77;3.90;;;;;;;;;;5069072;28;21244;-68
2021/09/20 00:33:46;;;;;;;5.57;4.00;;;;;;;;;;5067700;28;20677;-70
2021/09/20 00:36:13;;;;;;;5.60;3.80;;;;;;;;;;5069450;28;20449;-69
2021/09/20 00:38:41;;;;;;;5.40;4.13;;;;;;;;;;5068581;28;20450;-68
2021/09/20 00:41:08;;;;;;;4.63;4.10;;;;;;;;;;5069359;28;20532;-69
2021/09/20 00:43:35;;;;;;;5.20;3.97;;;;;;;;;;5068047;28;20442;-69
2021/09/20 00:46:04;;;;;;;4.87;3.80;;;;;;;;;;5065008;28;20549;-69
2021/09/20 00:48:31;;;;;;;5.53;4.20;;;;;;;;;;5068863;28;20553;-68
2021/09/20 00:51:00;;;;;;;5.00;3.97;;;;;;;;;;5073823;28;20445;-68
2021/09/20 00:53:28;;;;;;;5.13;4.63;;;;;;;;;;5070761;28;20563;-72
2021/09/20 00:55:55;;;;;;;4.90;4.27;;;;;;;;;;5073970;28;20517;-69
2021/09/20 00:58:22;;;;;;;4.73;4.23;;;;;;;;;;5073286;28;21024;-68
2021/09/20 01:00:50;;;;;;;5.47;4.40;;;;;;;;;;5072918;28;20453;-68
2021/09/20 01:03:17;;;;;;;5.23;4.53;;;;;;;;;;5073635;28;20454;-68
2021/09/20 01:05:44;;;;;;;6.20;4.50;;;;;;;;;;5073051;28;20529;-69
2021/09/20 01:08:13;;;;;;;5.17;4.67;;;;;;;;;;5072946;28;20488;-69
2021/09/20 01:10:40;;;;;;;4.87;4.40;;;;;;;;;;5073354;28;20524;-69
2021/09/20 01:13:07;;;;;;;5.40;4.00;;;;;;;;;;5073414;28;20512;-68
2021/09/20 01:15:34;;;;;;;5.27;3.30;;;;;;;;;;5073239;28;20457;-68
2021/09/20 01:18:01;;;;;;;4.73;4.10;;;;;;;;;;5072653;28;20808;-68
2021/09/20 01:20:29;;;;;;;4.17;3.77;;;;;;;;;;5072909;28;20533;-69
2021/09/20 01:23:00;;;;;;;5.10;4.23;;;;;;;;;;5073219;28;20725;-69
2021/09/20 01:25:27;;;;;;;6.73;4.63;;;;;;;;;;5073011;28;20449;-69
2021/09/20 01:27:54;;;;;;;4.63;4.10;;;;;;;;;;5073597;28;20461;-67
2021/09/20 01:30:22;;;;;;;4.20;3.80;;;;;;;;;;5075017;28;20473;-70
2021/09/20 01:32:49;;;;;;;3.90;3.60;;;;;;;;;;5072257;28;20453;-68
2021/09/20 01:35:18;;;;;;;5.90;5.30;;;;;;;;;;5073158;28;20553;-68
2021/09/20 01:37:45;;;;;;;5.40;4.60;;;;;;;;;;5071094;28;20540;-68
2021/09/20 01:40:14;;;;;;;5.10;4.60;;;;;;;;;;5073247;28;20519;-68
2021/09/20 01:42:42;;;;;;;5.17;4.27;;;;;;;;;;5072229;28;20441;-68
2021/09/20 01:45:11;;;;;;;5.23;4.40;;;;;;;;;;5072585;28;20445;-69
2021/09/20 01:47:38;;;;;;;5.10;4.23;;;;;;;;;;5061238;28;20523;-68
2021/09/20 01:50:05;;;;;;;5.00;3.93;;;;;;;;;;5072644;28;20446;-68
2021/09/20 01:52:33;;;;;;;5.03;4.40;;;;;;;;;;5071726;28;20487;-68
2021/09/20 01:55:00;;;;;;;4.80;4.10;;;;;;;;;;5072834;28;20484;-68
2021/09/20 01:57:29;;;;;;;4.83;4.20;;;;;;;;;;5071375;28;20528;-71
2021/09/20 01:59:56;;;;;;;5.20;4.10;;;;;;;;;;5071879;28;20538;-69
2021/09/20 02:02:23;;;;;;;4.60;3.77;;;;;;;;;;5072349;28;20553;-72
2021/09/20 02:04:50;;;;;;;6.03;4.80;;;;;;;;;;5071722;28;20480;-68
2021/09/20 02:07:17;;;;;;;5.00;4.23;;;;;;;;;;5071236;28;20488;-68
2021/09/20 02:09:45;;;;;;;4.90;4.40;;;;;;;;;;5071005;28;20472;-68
2021/09/20 02:12:12;;;;;;;5.47;4.93;;;;;;;;;;5071828;28;20992;-69
2021/09/20 02:14:41;;;;;;;4.97;4.43;;;;;;;;;;5071472;28;20543;-69
2021/09/20 02:17:08;;;;;;;4.80;4.30;;;;;;;;;;5071243;28;20976;-68
2021/09/20 02:19:35;;;;;;;6.57;4.73;;;;;;;;;;5071342;28;20457;-68
2021/09/20 02:22:02;;;;;;;5.77;4.43;;;;;;;;;;5071373;28;20537;-68
2021/09/20 02:24:29;;;;;;;4.87;4.10;;;;;;;;;;5071487;28;20511;-72
2021/09/20 02:26:57;;;;;;;5.57;5.07;;;;;;;;;;5071268;28;20449;-69
2021/09/20 02:29:24;;;;;;;5.60;4.57;;;;;;;;;;5071662;28;20874;-69
2021/09/20 02:31:52;;;;;;;6.70;5.30;;;;;;;;;;5070418;28;20525;-68
2021/09/20 02:34:20;;;;;;;4.97;4.47;;;;;;;;;;5071929;28;20488;-68
2021/09/20 02:36:47;;;;;;;6.40;4.57;;;;;;;;;;5069913;28;20489;-68
2021/09/20 02:39:15;;;;;;;6.10;5.50;;;;;;;;;;5071143;28;20488;-68
2021/09/20 02:41:42;;;;;;;6.10;5.00;;;;;;;;;;5070622;28;20969;-68
2021/09/20 02:44:12;;;;;;;6.03;5.37;;;;;;;;;;5071655;28;20479;-69
2021/09/20 02:46:39;;;;;;;5.47;4.87;;;;;;;;;;5059232;28;20537;-70
2021/09/20 02:49:08;;;;;;;5.87;4.70;;;;;;;;;;5070665;28;20450;-68
2021/09/20 02:51:35;;;;;;;4.43;4.00;;;;;;;;;;5069723;28;20450;-69
2021/09/20 02:54:02;;;;;;;5.40;4.90;;;;;;;;;;5070742;28;20526;-68
2021/09/20 02:56:29;;;;;;;4.73;4.03;;;;;;;;;;5070469;28;20460;-72
2021/09/20 02:58:56;;;;;;;6.30;5.40;;;;;;;;;;5070842;28;20449;-68
2021/09/20 03:01:24;;;;;;;4.00;3.60;;;;;;;;;;5070773;28;20484;-71
2021/09/20 03:03:51;;;;;;;4.07;3.37;;;;;;;;;;5069885;28;20713;-68
2021/09/20 03:06:19;;;;;;;6.77;4.30;;;;;;;;;;5070132;28;21191;-68
2021/09/20 03:08:47;;;;;;;7.00;4.10;;;;;;;;;;5070003;28;20540;-68
2021/09/20 03:11:14;;;;;;;6.07;4.30;;;;;;;;;;5070913;28;20452;-69
2021/09/20 03:13:41;;;;;;;6.57;4.63;;;;;;;;;;5069748;28;20564;-69
2021/09/20 03:16:08;;;;;;;5.27;4.37;;;;;;;;;;5070040;28;20477;-68
2021/09/20 03:18:35;;;;;;;5.67;4.00;;;;;;;;;;5070017;28;20450;-69
2021/09/20 03:21:02;;;;;;;5.43;4.40;;;;;;;;;;5070800;28;20451;-68
2021/09/20 03:23:31;;;;;;;4.77;4.07;;;;;;;;;;5070579;28;20536;-72
2021/09/20 03:25:58;;;;;;;4.30;3.60;;;;;;;;;;5074318;28;20462;-69
2021/09/20 03:28:26;;;;;;;7.40;4.30;;;;;;;;;;5070712;28;20525;-68
2021/09/20 03:30:53;;;;;;;6.23;4.53;;;;;;;;;;5070795;28;20812;-68
2021/09/20 03:33:20;;;;;;;4.53;3.83;;;;;;;;;;5071191;28;20438;-68
2021/09/20 03:35:47;;;;;;;5.13;4.70;;;;;;;;;;5069675;28;21347;-69
2021/09/20 03:38:14;;;;;;;8.53;4.90;;;;;;;;;;5070361;28;20949;-69
2021/09/20 03:40:43;;;;;;;5.03;4.20;;;;;;;;;;5068156;28;20456;-69
2021/09/20 03:43:10;;;;;;;5.57;5.00;;;;;;;;;;5070567;28;20478;-69
2021/09/20 03:45:37;;;;;;;6.10;4.33;;;;;;;;;;5069803;28;20971;-68
2021/09/20 03:48:04;;;;;;;5.20;4.70;;;;;;;;;;5070189;28;20544;-69
2021/09/20 03:50:31;;;;;;;5.00;4.50;;;;;;;;;;5070283;28;20476;-68
2021/09/20 03:52:59;;;;;;;7.07;5.27;;;;;;;;;;5070470;28;20952;-68
2021/09/20 03:55:26;;;;;;;6.93;4.87;;;;;;;;;;5069883;28;20481;-68
2021/09/20 03:57:54;;;;;;;5.30;3.60;;;;;;;;;;5069823;28;20784;-69
2021/09/20 04:00:22;;;;;;;5.43;4.07;;;;;;;;;;5070657;28;20540;-68
2021/09/20 04:02:49;;;;;;;5.40;4.50;;;;;;;;;;5069737;28;20532;-68
2021/09/20 04:05:16;;;;;;;6.00;4.93;;;;;;;;;;5069655;28;20464;-68
2021/09/20 04:07:43;;;;;;;5.33;4.40;;;;;;;;;;5068685;28;20588;-72
2021/09/20 04:10:12;;;;;;;5.33;4.37;;;;;;;;;;5070018;28;20506;-68
2021/09/20 04:12:39;;;;;;;4.90;4.47;;;;;;;;;;5069760;28;20461;-68
2021/09/20 04:15:09;;;;;;;4.90;4.40;;;;;;;;;;5069303;28;20572;-70
2021/09/20 04:17:36;;;;;;;5.83;4.10;;;;;;;;;;5068792;28;20529;-68
2021/09/20 04:20:04;;;;;;;8.33;5.03;;;;;;;;;;5069803;28;20457;-70
2021/09/20 04:22:31;;;;;;;5.60;4.80;;;;;;;;;;5069418;28;20473;-68
2021/09/20 04:24:58;;;;;;;5.50;4.87;;;;;;;;;;5065165;28;20533;-69
2021/09/20 04:27:27;;;;;;;7.03;5.10;;;;;;;;;;5069927;28;20528;-68
2021/09/20 04:29:55;;;;;;;6.83;5.17;;;;;;;;;;5070559;28;20449;-68
2021/09/20 04:32:23;;;;;;;4.90;4.40;;;;;;;;;;5069848;28;20533;-68
2021/09/20 04:34:50;;;;;;;10.80;4.90;;;;;;;;;;5069396;28;20568;-69
2021/09/20 04:37:18;;;;;;;7.10;5.83;;;;;;;;;;5069111;28;20493;-68
2021/09/20 04:39:45;;;;;;;5.20;4.70;;;;;;;;;;5059673;28;20445;-68
2021/09/20 04:42:12;;;;;;;4.83;4.37;;;;;;;;;;5069969;28;20537;-68
2021/09/20 04:44:39;;;;;;;6.53;5.83;;;;;;;;;;5069466;28;20529;-68
2021/09/20 04:47:07;;;;;;;6.67;5.97;;;;;;;;;;5061904;28;20545;-68
2021/09/20 04:49:35;;;;;;;5.77;5.20;;;;;;;;;;5069111;28;20449;-68
2021/09/20 04:52:02;;;;;;;6.70;5.03;;;;;;;;;;5070378;28;20878;-68
2021/09/20 04:54:30;;;;;;;11.90;9.87;;;;;;;;;;5070003;28;20569;-73
2021/09/20 04:56:57;;;;;;;6.97;5.63;;;;;;;;;;5069421;28;20477;-68
2021/09/20 04:59:24;;;;;;;4.80;4.03;;;;;;;;;;5067426;28;20524;-70
2021/09/20 05:01:51;;;;;;;4.77;3.90;;;;;;;;;;5067402;28;20552;-69
2021/09/20 05:04:18;;;;;;;5.20;4.23;;;;;;;;;;5061592;28;20961;-69
2021/09/20 05:06:47;;;;;;;6.93;4.97;;;;;;;;;;5067978;28;21052;-69
2021/09/20 05:09:14;;;;;;;5.17;4.60;;;;;;;;;;5069369;28;20469;-68
2021/09/20 05:11:41;;;;;;;7.73;5.20;;;;;;;;;;5068080;28;20473;-69
2021/09/20 05:14:08;;;;;;;5.60;4.77;;;;;;;;;;5068758;28;20445;-69
2021/09/20 05:16:36;;;;;;;6.13;4.40;;;;;;;;;;5062686;28;20828;-69
2021/09/20 05:19:03;;;;;;;8.63;5.10;;;;;;;;;;5064121;28;20449;-71
2021/09/20 05:21:30;;;;;;;6.50;5.17;;;;;;;;;;5062635;28;20488;-71
2021/09/20 05:23:59;;;;;;;5.67;5.10;;;;;;;;;;5060348;28;20936;-68
2021/09/20 05:26:26;;;;;;;5.30;3.93;;;;;;;;;;5064903;28;20536;-67
2021/09/20 05:28:53;;;;;;;8.23;4.53;;;;;;;;;;5064651;28;20945;-69
2021/09/20 05:31:21;;;;;;;7.10;4.70;;;;;;;;;;5062492;28;20930;-68
2021/09/20 05:33:48;;;;;;;5.10;4.07;;;;;;;;;;5060967;28;20539;-68
2021/09/20 05:36:15;;;;;;;5.83;4.63;;;;;;;;;;5068506;28;20615;-68
2021/09/20 05:38:42;;;;;;;5.60;4.40;;;;;;;;;;5059923;28;20485;-68
2021/09/20 05:41:11;;;;;;;6.40;4.57;;;;;;;;;;5064908;28;20460;-71
2021/09/20 05:43:38;;;;;;;9.00;5.00;;;;;;;;;;5068726;28;20797;-69
2021/09/20 05:46:06;;;;;;;6.40;4.40;;;;;;;;;;5065390;28;20815;-68
2021/09/20 05:48:33;;;;;;;5.70;4.43;;;;;;;;;;5071365;28;20871;-68
2021/09/20 05:51:00;;;;;;;5.97;5.37;;;;;;;;;;5071779;28;20536;-69
2021/09/20 05:53:27;;;;;;;9.20;4.43;;;;;;;;;;5071878;28;20540;-72
2021/09/20 05:55:55;;;;;;;5.80;5.30;;;;;;;;;;5070395;28;20477;-68
2021/09/20 05:58:23;;;;;;;5.30;4.60;;;;;;;;;;5066274;28;20445;-68
2021/09/20 06:00:50;;;;;;;6.20;5.10;;;;;;;;;;5071370;28;20449;-68
2021/09/20 06:03:18;;;;;;;7.80;6.17;;;;;;;;;;5068574;28;20485;-69
2021/09/20 06:05:45;;;;;;;4.43;3.93;;;;;;;;;;5070412;28;20452;-69
2021/09/20 06:08:12;;;;;;;5.80;5.20;;;;;;;;;;5072058;28;20473;-70
2021/09/20 06:10:39;;;;;;;6.60;5.20;;;;;;;;;;5070994;28;20546;-69
2021/09/20 06:13:07;;;;;;;8.37;5.37;;;;;;;;;;5071859;28;20537;-68
2021/09/20 06:15:36;;;;;;;8.07;4.67;;;;;;;;;;5070117;28;20481;-69
2021/09/20 06:18:03;;;;;;;7.83;5.10;;;;;;;;;;5071705;28;20448;-72
2021/09/20 06:20:30;;;;;;;6.07;5.00;;;;;;;;;;5071832;28;20533;-69
2021/09/20 06:22:58;;;;;;;5.10;4.20;;;;;;;;;;5070968;28;20456;-69
2021/09/20 06:25:26;;;;;;;6.20;5.60;;;;;;;;;;5071287;28;20448;-68
2021/09/20 06:27:53;;;;;;;5.37;4.87;;;;;;;;;;5069161;28;20460;-68
2021/09/20 06:30:20;;;;;;;6.33;5.60;;;;;;;;;;5070204;28;20460;-68
2021/09/20 06:32:49;;;;;;;7.10;4.97;;;;;;;;;;5071312;28;21448;-68
2021/09/20 06:35:16;;;;;;;5.73;5.20;;;;;;;;;;5076958;28;20481;-68
2021/09/20 06:37:43;;;;;;;17.17;12.17;;;;;;;;;;5070464;28;20560;-72
2021/09/20 06:40:12;;;;;;;6.20;5.60;;;;;;;;;;5071585;28;20533;-69
2021/09/20 06:42:39;;;;;;;14.47;5.70;;;;;;;;;;5069943;28;20964;-69
2021/09/20 06:45:07;;;;;;;6.10;5.43;;;;;;;;;;5070823;28;20538;-69
2021/09/20 06:47:35;;;;;;;7.70;6.23;;;;;;;;;;5067454;28;20446;-69
2021/09/20 06:50:04;;;;;;;8.57;6.37;;;;;;;;;;5066495;28;20460;-69
2021/09/20 06:52:31;;;;;;;7.47;6.50;;;;;;;;;;5070587;28;20545;-69
2021/09/20 06:54:58;;;;;;;9.07;7.10;;;;;;;;;;5071270;28;20487;-68
2021/09/20 06:57:26;;;;;;;6.77;5.37;;;;;;;;;;5069957;28;20815;-69
2021/09/20 06:59:53;;;;;;;7.03;6.17;;;;;;;;;;5070726;28;20460;-68
2021/09/20 07:02:20;;;;;;;10.13;7.47;;;;;;;;;;5069456;28;20484;-69
2021/09/20 07:04:47;;;;;;;8.87;7.33;;;;;;;;;;5068529;28;20535;-69
2021/09/20 07:07:17;;;;;;;8.10;6.90;;;;;;;;;;5061853;28;20487;-68
2021/09/20 07:09:44;;;;;;;14.57;7.23;;;;;;;;;;5069739;28;20452;-69
2021/09/20 07:12:12;;;;;;;11.70;7.77;;;;;;;;;;5070293;28;20523;-69
2021/09/20 07:14:39;;;;;;;9.47;6.63;;;;;;;;;;5068623;28;20453;-69
2021/09/20 07:17:06;;;;;;;8.47;6.90;;;;;;;;;;5068829;28;20983;-68
2021/09/20 07:19:33;;;;;;;9.37;6.33;;;;;;;;;;5069203;28;20460;-71
2021/09/20 07:22:00;;;;;;;11.63;6.53;;;;;;;;;;5069731;28;20481;-69
2021/09/20 07:24:29;;;;;;;13.20;7.17;;;;;;;;;;5070191;28;20480;-74
2021/09/20 07:26:58;;;;;;;10.27;7.67;;;;;;;;;;5062996;28;20461;-68
2021/09/20 07:29:26;;;;;;;14.73;8.00;;;;;;;;;;5069072;28;20456;-71
2021/09/20 07:31:53;;;;;;;15.27;7.13;;;;;;;;;;5069369;28;20819;-69
2021/09/20 07:34:20;;;;;;;8.50;6.47;;;;;;;;;;5069442;28;20811;-69
2021/09/20 07:36:47;;;;;;;9.27;6.60;;;22.50;99.90;;;;;;5067790;28;20620;-70
2021/09/20 07:39:14;;;;;;;15.13;6.97;;;16.20;99.90;;;;;;5069450;28;20871;-69
2021/09/20 07:41:42;;;;;;;9.20;7.60;;;16.00;99.90;;;;;;5068916;28;20529;-69
2021/09/20 07:44:09;;;;;;;10.03;6.50;;;16.00;99.90;;;;;;5069340;28;20464;-70
2021/09/20 07:46:37;;;;;;;10.63;7.20;;;16.10;99.90;;;;;;5068338;28;20461;-70
2021/09/20 07:49:04;;;;;;;13.13;7.90;;;16.10;99.90;;;;;;5069428;28;20465;-69
2021/09/20 07:51:31;;;;;;;12.90;9.03;;;16.20;99.90;;;;;;5067838;28;20879;-69
2021/09/20 07:53:58;;;;;;;15.17;7.77;;;16.20;99.90;;;;;;5069694;28;20453;-69
2021/09/20 07:56:25;;;;;;;10.20;8.00;;;16.30;19.50;;;;;;5070094;28;20575;-69
2021/09/20 07:58:53;;;;;;;10.90;8.23;;;16.40;99.90;;;;;;5068344;28;20869;-69
2021/09/20 08:01:20;;;;;;;27.73;9.30;;;16.40;99.90;;;;;;5070309;28;20449;-70
2021/09/20 08:03:47;;;;;;;26.00;8.60;;;16.30;96.90;;;;;;5068519;28;21187;-69
2021/09/20 08:06:17;;;;;;;28.43;9.20;;;16.40;1.00;;;;;;5067948;28;20903;-69
2021/09/20 08:08:44;;;;;;;13.33;7.70;;;16.40;1.00;;;;;;5060464;28;20480;-70
2021/09/20 08:11:12;;;;;;;13.07;7.83;;;16.30;77.70;;;;;;5069186;28;20532;-70
2021/09/20 08:13:39;;;;;;;10.83;8.20;;;16.40;99.90;;;;;;5067873;28;20537;-69
2021/09/20 08:16:07;;;;;;;11.60;8.50;;;16.40;1.00;;;;;;5064911;28;20487;-69
2021/09/20 08:18:34;;;;;;;11.73;7.67;;;16.50;1.00;;;;;;5067925;28;20462;-69
2021/09/20 08:21:01;;;;;;;11.00;7.20;;;16.30;68.70;;;;;;5066245;28;20453;-70
2021/09/20 08:23:28;;;;;;;11.73;8.37;;;16.40;7.80;;;;;;5066881;28;20449;-71
2021/09/20 08:25:56;;;;;;;11.03;7.87;;;16.50;1.00;;;;;;5060980;28;20491;-69
2021/09/20 08:28:23;;;;;;;11.40;8.17;;;16.50;1.00;;;;;;5064755;28;20511;-74
2021/09/20 08:30:50;;;;;;;11.23;7.40;;;16.60;1.00;;;;;;5066603;28;20493;-70
2021/09/20 08:33:20;;;;;;;11.50;9.00;;;16.50;1.00;;;;;;5067112;28;20556;-70
2021/09/20 08:35:47;;;;;;;11.90;8.77;;;16.50;26.50;;;;;;5056093;28;20747;-69
2021/09/20 08:38:14;;;;;;;11.40;9.23;;;16.60;1.00;;;;;;5067744;28;20537;-70
2021/09/20 08:40:41;;;;;;;15.97;9.70;;;16.60;1.00;;;;;;5067101;28;20456;-71
2021/09/20 08:43:08;;;;;;;14.90;8.03;;;16.70;1.00;;;;;;5067548;28;20552;-70
2021/09/20 08:45:35;;;;;;;12.40;9.47;;;;;;;;;;5065409;28;20532;-69
2021/09/20 08:48:03;;;;;;;13.43;8.37;;;;;;;;;;5065772;28;20445;-69
2021/09/20 08:50:33;;;;;;;13.67;9.83;;;;;;;;;;5065271;28;20972;-70
2021/09/20 08:53:01;;;;;;;14.13;8.70;;;;;;;;;;5067036;28;20457;-70
2021/09/20 08:55:29;;;;;;;12.83;8.40;;;;;;;;;;5063301;28;20477;-70
2021/09/20 08:57:56;;;;;;;10.83;8.20;;;;;;;;;;5066724;28;20479;-70
2021/09/20 09:00:23;;;;;;;11.50;8.97;;;;;;;;;;5067090;28;20497;-73
2021/09/20 09:02:51;;;;;;;11.87;8.60;;;;;;;;;;5066318;28;20477;-70
2021/09/20 09:05:19;;;;;;;10.70;8.53;;;;;;;;;;5066573;28;20984;-70
2021/09/20 09:07:49;;;;;;;12.40;9.73;;;;;;;;;;5061288;28;20579;-70
2021/09/20 09:10:16;;;;;;;12.70;8.70;;;;;;;;;;5063149;28;21696;-70
2021/09/20 09:12:44;;;;;;;21.57;11.17;;;;;;;;;;5067627;28;20457;-74
2021/09/20 09:15:12;;;;;;;15.97;8.83;;;;;;;;;;5062565;28;20449;-70
2021/09/20 09:17:40;;;;;;;13.07;10.60;;;;;;;;;;5063806;28;20525;-70
2021/09/20 09:20:09;;;;;;;12.73;9.63;;;;;;;;;;5070339;28;20491;-70
2021/09/20 09:22:41;;;;;;;13.70;9.13;;;;;;;;;;5070577;28;21003;-70
2021/09/20 09:25:11;;;;;;;11.10;9.33;;;;;;;;;;5071562;28;20525;-70
2021/09/20 09:27:39;;;;;;;13.17;10.03;;;;;;;;;;5070819;28;20475;-69
2021/09/20 09:30:08;;;;;;;13.67;9.70;;;;;;;;;;5070936;28;20942;-69
2021/09/20 09:32:36;;;;;;;12.50;10.10;;;;;;;;;;5071217;28;21021;-69
2021/09/20 09:35:06;;;;;;;18.70;10.50;;;;;;;;;;5072023;28;20567;-73
2021/09/20 09:37:34;;;;;;;11.57;9.97;;;;;;;;;;5062469;28;20492;-70
2021/09/20 09:40:17;;;;;;;14.70;10.57;;;;;;;;;;5072235;28;20528;-69
2021/09/20 09:42:45;;;;;;;13.97;9.70;;;;;;;;;;5071165;28;20804;-69
2021/09/20 09:45:20;;;;;;;10.80;8.90;;;;;;;;;;5070253;28;20469;-69
2021/09/20 09:47:49;;;;;;;12.37;9.53;;;;;;;;;;5073227;28;20451;-68
2021/09/20 09:50:18;;;;;;;13.67;10.70;;;;;;;;;;5075638;28;20531;-69
2021/09/20 09:52:47;;;;;;;12.30;10.33;;;;;;;;;;5071586;28;21018;-69
2021/09/20 09:55:16;;;;;;;13.47;10.50;;;;;;;;;;5071639;28;20475;-69
2021/09/20 09:57:43;;;;;;;12.27;9.73;;;;;;;;;;5071340;28;20477;-69
2021/09/20 10:00:11;;;;;;;11.23;9.87;;;;;;;;;;5070947;28;20532;-69
2021/09/20 10:02:41;;;;;;;13.70;9.50;;;;;;;;;;5054458;28;20529;-69
2021/09/20 10:05:09;;;;;;;11.87;9.73;;;;;;;;;;5057316;28;20470;-69
2021/09/20 10:07:37;;;;;;;12.17;10.23;;;;;;;;;;5066664;28;20564;-69
2021/09/20 10:10:06;;;;;;;11.53;9.77;;;;;;;;;;5063685;28;20861;-69
2021/09/20 10:12:35;;;;;;;13.67;10.40;;;;;;;;;;5064107;28;20448;-69
2021/09/20 10:15:02;;;;;;;15.37;10.13;;;;;;;;;;5062444;28;20449;-69
2021/09/20 10:17:30;;;;;;;16.07;9.73;;;;;;;;;;5067076;28;20485;-73
2021/09/20 10:19:58;;;;;;;12.37;9.70;;;;;;;;;;5069694;28;20460;-72
2021/09/20 10:22:26;;;;;;;11.20;9.70;;;;;;;;;;5067454;28;20947;-69
2021/09/20 10:24:55;;;;;;;13.93;10.17;;;;;;;;;;5073619;28;20826;-69
2021/09/20 10:27:23;;;;;;;11.70;9.63;;;;;;;;;;5071457;28;20561;-69
2021/09/20 10:29:53;;;;;;;13.70;10.93;;;;;;;;;;5071879;28;20528;-69
2021/09/20 10:32:21;;;;;;;12.47;10.20;;;;;;;;;;5072097;28;20460;-69
2021/09/20 10:34:49;;;;;;;11.40;8.77;;;;;;;;;;5070569;28;20532;-69
2021/09/20 10:37:17;;;;;;;13.07;10.77;;;;;;;;;;5071097;28;20573;-69
2021/09/20 10:39:55;;;;;;;15.10;11.30;;;;;;;;;;5070966;28;20481;-70
2021/09/20 10:42:59;;;;;;;14.30;11.33;;;;;;;;;;5070867;28;20880;-70
2021/09/20 10:45:43;;;;;;;12.90;10.53;;;;;;;;;;5027779;28;20972;-70
2021/09/20 10:48:18;;;;;;;15.83;11.10;;;;;;;;;;5027898;28;20903;-70
2021/09/20 10:50:46;;;;;;;12.27;10.97;;;;;;;;;;5055342;28;20479;-69
2021/09/20 10:53:17;;;;;;;19.47;10.50;;;;;;;;;;5071412;28;20484;-71
2021/09/20 10:55:59;;;;;;;14.13;10.70;;;;;;;;;;5069036;28;20449;-70
2021/09/20 10:58:27;;;;;;;15.50;11.33;;;;;;;;;;5068714;28;20452;-69
2021/09/20 11:01:20;;;;;;;13.57;10.33;;;;;;;;;;5071070;28;20502;-70
2021/09/20 11:03:49;;;;;;;14.50;10.23;;;;;;;;;;5068813;28;20663;-69
2021/09/20 11:06:20;;;;;;;13.13;10.40;;;;;;;;;;5070220;28;20485;-70
2021/09/20 11:08:47;;;;;;;16.20;10.80;;;;;;;;;;5068759;28;20782;-69
2021/09/20 11:11:33;;;;;;;15.00;10.67;;;;;;;;;;5069969;28;20458;-69
2021/09/20 11:14:04;;;;;;;12.27;10.73;;;;;;;;;;5071612;28;20451;-70
2021/09/20 11:16:48;;;;;;;13.33;11.50;;;;;;;;;;5069181;28;20562;-70
2021/09/20 11:19:36;;;;;;;15.40;10.40;;;;;;;;;;5070924;28;20814;-71
2021/09/20 11:22:19;;;;;;;14.00;9.77;;;;;;;;;;5066589;28;20442;-73
2021/09/20 11:24:47;;;;;;;13.17;9.40;;;;;;;;;;5068224;28;20520;-71
2021/09/20 11:27:15;;;;;;;11.53;9.90;;;;;;;;;;5058325;28;20541;-70
2021/09/20 11:29:44;;;;;;;11.20;8.63;;;;;;;;;;5064662;28;20450;-69
2021/09/20 11:32:12;;;;;;;14.00;9.90;;;;;;;;;;5061943;28;20446;-69
2021/09/20 11:34:47;;;;;;;13.03;9.37;;;;;;;;;;5067482;28;20500;-70
2021/09/20 11:37:18;;;;;;;12.20;10.07;;;;;;;;;;5064340;28;20972;-69
2021/09/20 11:39:46;;;;;;;12.70;10.17;;;;;;;;;;5067572;28;20450;-70
2021/09/20 11:42:15;;;;;;;11.67;9.90;;;;;;;;;;5068037;28;20456;-71
2021/09/20 11:44:48;;;;;;;14.97;9.90;;;;;;;;;;5069241;28;21011;-70
2021/09/20 11:47:17;;;;;;;13.80;11.17;;;;;;;;;;5067956;28;20622;-71
2021/09/20 11:49:45;;;;;;;13.57;10.30;;;;;;;;;;5069739;28;20469;-73
2021/09/20 11:52:13;;;;;;;12.47;9.83;;;;;;;;;;5069549;28;20813;-72
2021/09/20 11:54:40;;;;;;;12.00;9.70;;;;;;;;;;5069516;28;20548;-72
2021/09/20 11:57:16;;;;;;;11.23;9.40;;;;;;;;;;5068671;28;20473;-72
2021/09/20 11:59:43;;;;;;;11.07;9.37;;;;;;;;;;5069453;28;20453;-79
2021/09/20 12:02:10;;;;;;;14.20;9.80;;;;;;;;;;5069480;28;20450;-70
2021/09/20 12:04:50;;;;;;;10.10;9.00;;;;;;;;;;5067739;28;20449;-72
2021/09/20 12:07:31;;;;;;;12.93;9.90;;;16.90;99.90;;;;;;5068080;28;20488;-72
2021/09/20 12:09:59;;;;;;;10.33;8.30;;;19.00;99.90;;;;;;5068021;28;20536;-78
2021/09/20 12:12:31;;;;;;;12.03;8.20;;;18.70;99.90;;;;;;5069946;28;20452;-71
2021/09/20 12:15:01;;;;;;;9.70;8.70;;;18.60;99.90;;;;;;5068217;28;20449;-73
2021/09/20 12:18:00;;;;;;;10.73;9.00;;;18.40;99.90;;;;;;5068167;28;20564;-79
2021/09/20 12:20:33;;;;;;;13.47;9.60;;;18.40;99.90;;;;;;5065001;28;20544;-78
2021/09/20 12:23:02;;;;;;;9.90;8.10;;;18.50;99.90;;;;;;5070078;28;20529;-72
2021/09/20 12:25:33;;;;;;;11.23;8.70;;;18.60;99.90;;;;;;5068400;28;20524;-77
2021/09/20 12:28:02;;;;;;;9.67;8.30;;;18.50;99.90;;;;;;5064975;28;20475;-72
2021/09/20 12:30:30;;;;;;;8.47;7.60;;;18.60;99.90;;;;;;5068850;28;20835;-72
2021/09/20 12:33:06;;;;;;;10.47;7.53;;;18.50;99.90;;;;;;5067922;28;20536;-71
2021/09/20 12:35:35;;;;;;;10.13;8.70;;;18.60;99.90;;;;;;5063456;28;20940;-71
2021/09/20 12:38:19;;;;;;;9.93;7.93;;;18.70;99.90;;;;;;5069111;28;20477;-70
2021/09/20 12:40:47;;;;;;;9.30;7.67;;;18.60;99.90;;;;;;5066655;28;20446;-71
2021/09/20 12:43:21;;;;;;;11.37;8.23;;;18.50;99.90;;;;;;5069537;28;20532;-71
2021/09/20 12:45:48;;;;;;;10.20;8.20;;;18.70;99.90;;;;;;5056370;28;20457;-71
2021/09/20 12:48:16;;;;;;;9.60;7.80;;;18.90;99.90;;;;;;5079595;28;20455;-71
2021/09/20 12:50:47;;;;;;;10.23;7.87;;;18.90;99.90;;;;;;5068774;28;20577;-75
2021/09/20 12:53:19;;;;;;;9.00;7.63;;;19.00;99.90;;;;;;5069555;28;20519;-71
2021/09/20 12:55:48;;;;;;;8.53;7.50;;;19.00;98.20;;;;;;5068325;28;20442;-71
2021/09/20 12:58:26;;;;;;;8.50;7.60;;;19.30;90.20;;;;;;5069341;28;20484;-71
2021/09/20 13:00:56;;;;;;;11.77;8.30;;;19.40;57.20;;;;;;5063711;28;20498;-72
2021/09/20 13:03:32;;;;;;;10.13;8.23;;;19.30;8.20;;;;;;5068807;28;20445;-72
2021/09/20 13:06:03;;;;;;;9.77;7.67;;;19.20;14.70;;;;;;5068146;28;20460;-72
2021/09/20 13:08:30;;;;;;;8.90;7.00;;;;;;;;;;5064251;28;20481;-78
2021/09/20 13:11:13;;;;;;;10.77;7.60;;;;;;;;;;5068680;28;20452;-74
2021/09/20 13:13:42;;;;;;;7.43;6.67;;;;;;;;;;5068334;28;20525;-73
2021/09/20 13:16:09;;;;;;;10.90;8.17;;;;;;;;;;5068221;28;20450;-71
2021/09/20 13:18:36;;;;;;;8.07;7.10;;;;;;;;;;5067469;28;20492;-72
2021/09/20 13:21:17;;;;;;;7.50;6.80;;;;;;;;;;5067888;28;20544;-74
2021/09/20 13:23:45;;;;;;;10.43;7.60;;;;;;;;;;5067270;28;20461;-70
2021/09/20 13:26:13;;;;;;;7.07;6.37;;;;;;;;;;5067158;28;20530;-71
2021/09/20 13:28:40;;;;;;;9.90;7.77;;;;;;;;;;5068035;28;20448;-71
2021/09/20 13:31:10;;;;;;;9.50;7.33;;;;;;;;;;5068713;28;20438;-71
2021/09/20 13:33:37;;;;;;;9.07;7.17;;;;;;;;;;5068610;28;20450;-71
2021/09/20 13:36:07;;;;;;;9.03;7.30;;;;;;;;;;5064819;28;20453;-70
2021/09/20 13:38:36;;;;;;;9.20;7.27;;;;;;;;;;5067202;28;20492;-70
2021/09/20 13:41:04;;;;;;;8.80;7.90;;;;;;;;;;5068894;28;20449;-74
2021/09/20 13:43:32;;;;;;;8.13;7.20;;;;;;;;;;5067970;28;20442;-71
2021/09/20 13:46:00;;;;;;;8.60;7.60;;;;;;;;;;5067897;28;20464;-70
2021/09/20 13:48:28;;;;;;;7.93;6.40;;;;;;;;;;5069192;28;20826;-70
2021/09/20 13:50:55;;;;;;;7.70;6.87;;;;;;;;;;5069052;28;20477;-70
2021/09/20 13:53:22;;;;;;;8.20;7.27;;;;;;;;;;5069206;28;20743;-69
2021/09/20 13:55:51;;;;;;;8.00;6.37;;;;;;;;;;5067464;28;20528;-72
2021/09/20 13:58:19;;;;;;;6.83;6.13;;;;;;;;;;5072652;28;21043;-69
2021/09/20 14:00:47;;;;;;;7.70;6.70;;;;;;;;;;5069856;28;20469;-69
2021/09/20 14:03:14;;;;;;;9.53;7.10;;;;;;;;;;5071333;28;20788;-71
2021/09/20 14:05:43;;;;;;;7.20;6.50;;;;;;;;;;5070296;28;20448;-69
2021/09/20 14:08:11;;;;;;;8.27;7.23;;;;;;;;;;5069447;28;20514;-70
2021/09/20 14:10:38;;;;;;;8.77;6.73;;;;;;;;;;5070775;28;20981;-73
2021/09/20 14:13:07;;;;;;;7.97;6.37;;;;;;;;;;5068798;28;20529;-69
2021/09/20 14:15:35;;;;;;;7.60;6.20;;;;;;;;;;5070652;28;20536;-70
2021/09/20 14:18:02;;;;;;;6.77;5.40;;;;;;;;;;5071239;28;20575;-69
2021/09/20 14:20:30;;;;;;;12.00;5.80;;;;;;;;;;5069414;28;20532;-69
2021/09/20 14:22:59;;;;;;;5.27;4.77;;;;;;;;;;5069226;28;20455;-69
2021/09/20 14:25:28;;;;;;;5.83;5.13;;;;;;;;;;5069437;28;20503;-71
2021/09/20 14:27:55;;;;;;;5.43;4.57;;;;;;;;;;5069809;28;20957;-70